createdAt,value
2018-04-06T00:00:35.535Z,5.00
2018-04-06T00:01:39.747Z,4.50
2018-04-06T00:02:46.746Z,5.93
2018-04-06T00:03:54.539Z,5.43
2018-04-06T00:05:01.258Z,5.60
2018-04-06T00:06:05.836Z,5.30
2018-04-06T00:07:10.033Z,5.13
2018-04-06T00:08:17.602Z,4.75
2018-04-06T00:09:24.150Z,4.53
2018-04-06T00:10:30.864Z,4.20
2018-04-06T00:11:35.114Z,4.17
2018-04-06T00:12:39.327Z,5.27
2018-04-06T00:13:46.312Z,4.87
2018-04-06T00:14:52.644Z,5.17
2018-04-06T00:15:59.168Z,5.00
2018-04-06T00:17:03.398Z,5.22
2018-04-06T00:18:07.595Z,4.90
2018-04-06T00:19:11.793Z,4.97
2018-04-06T00:20:21.613Z,4.73
2018-04-06T00:21:29.611Z,4.77
2018-04-06T00:22:33.853Z,4.68
2018-04-06T00:23:38.076Z,4.65
2018-04-06T00:24:42.351Z,5.45
2018-04-06T00:25:49.266Z,5.55
2018-04-06T00:26:55.008Z,5.10
2018-04-06T00:27:59.699Z,4.80
2018-04-06T00:29:03.981Z,4.25
2018-04-06T00:30:08.956Z,5.30
2018-04-06T00:31:14.418Z,4.57
2018-04-06T00:32:22.941Z,4.77
2018-04-06T00:33:29.631Z,4.50
2018-04-06T00:34:33.857Z,4.32
2018-04-06T00:35:38.106Z,5.25
2018-04-06T00:36:44.068Z,4.67
2018-04-06T00:37:52.165Z,4.32
2018-04-06T00:38:58.135Z,5.10
2018-04-06T00:40:03.360Z,5.13
2018-04-06T00:41:07.930Z,4.90
2018-04-06T00:42:12.604Z,5.12
2018-04-06T00:43:19.636Z,4.80
2018-04-06T00:44:26.302Z,4.43
2018-04-06T00:45:31.901Z,5.05
2018-04-06T00:46:36.105Z,5.13
2018-04-06T00:47:40.356Z,5.07
2018-04-06T00:48:48.632Z,5.32
2018-04-06T00:49:55.396Z,6.00
2018-04-06T00:51:00.446Z,5.15
2018-04-06T00:52:05.407Z,5.87
2018-04-06T00:54:54.227Z,4.78
2018-04-06T00:55:59.729Z,4.20
2018-04-06T00:57:03.942Z,5.12
2018-04-06T00:58:08.131Z,5.60
2018-04-06T00:59:12.780Z,5.23
2018-04-06T01:00:20.774Z,4.90
2018-04-06T01:01:27.511Z,5.20
2018-04-06T01:02:32.680Z,4.87
2018-04-06T01:03:36.866Z,7.60
2018-04-06T01:04:41.087Z,5.73
2018-04-06T01:05:46.851Z,5.80
2018-04-06T01:06:56.246Z,4.40
2018-04-06T01:08:01.500Z,4.82
2018-04-06T01:09:06.530Z,5.00
2018-04-06T01:10:17.548Z,3.97
2018-04-06T01:11:23.001Z,4.43
2018-04-06T01:12:28.794Z,4.97
2018-04-06T01:13:33.000Z,6.40
2018-04-06T01:14:37.199Z,5.50
2018-04-06T01:15:41.428Z,4.55
2018-04-06T01:16:50.782Z,5.07
2018-04-06T01:17:56.833Z,4.68
2018-04-06T01:19:01.450Z,5.32
2018-04-06T01:20:05.655Z,4.57
2018-04-06T01:21:09.847Z,4.60
2018-04-06T01:22:18.465Z,4.80
2018-04-06T01:23:24.793Z,4.43
2018-04-06T01:24:30.726Z,4.70
2018-04-06T01:25:34.941Z,4.23
2018-04-06T01:26:39.133Z,5.80
2018-04-06T01:27:46.250Z,5.00
2018-04-06T01:28:53.510Z,5.37
2018-04-06T01:30:00.320Z,5.10
2018-04-06T01:31:04.536Z,4.12
2018-04-06T01:32:08.732Z,4.30
2018-04-06T01:33:15.862Z,5.10
2018-04-06T01:34:25.311Z,5.10
2018-04-06T01:35:31.304Z,5.47
2018-04-06T01:36:38.116Z,4.80
2018-04-06T01:37:44.165Z,5.07
2018-04-06T01:38:52.252Z,5.37
2018-04-06T01:39:58.610Z,5.20
2018-04-06T01:41:02.819Z,5.73
2018-04-06T01:42:07.009Z,5.30
2018-04-06T01:43:11.971Z,5.90
2018-04-06T01:44:22.410Z,5.03
2018-04-06T01:45:29.144Z,5.07
2018-04-06T01:46:33.495Z,5.37
2018-04-06T01:47:37.699Z,5.67
2018-04-06T01:48:42.086Z,4.70
2018-04-06T01:49:51.491Z,4.73
2018-04-06T01:50:58.278Z,5.03
2018-04-06T01:52:02.600Z,4.87
2018-04-06T01:53:06.813Z,4.70
2018-04-06T01:54:11.811Z,4.70
2018-04-06T01:55:22.165Z,5.00
2018-04-06T01:56:29.288Z,5.00
2018-04-06T01:57:34.297Z,4.87
2018-04-06T01:58:38.486Z,4.23
2018-04-06T01:59:44.417Z,5.25
2018-04-06T02:00:51.256Z,5.70
2018-04-06T02:01:57.536Z,4.63
2018-04-06T02:03:03.014Z,4.73
2018-04-06T02:04:07.207Z,4.20
2018-04-06T02:05:11.413Z,5.18
2018-04-06T02:06:20.740Z,5.40
2018-04-06T02:07:26.333Z,5.13
2018-04-06T02:08:31.086Z,4.63
2018-04-06T02:09:35.269Z,5.47
2018-04-06T02:10:40.248Z,4.70
2018-04-06T02:11:48.701Z,4.70
2018-04-06T02:12:55.556Z,4.33
2018-04-06T02:14:01.293Z,4.50
2018-04-06T02:15:05.516Z,4.70
2018-04-06T02:16:09.736Z,4.20
2018-04-06T02:17:17.190Z,4.87
2018-04-06T02:18:23.294Z,4.43
2018-04-06T02:19:29.878Z,5.20
2018-04-06T02:20:34.088Z,5.95
2018-04-06T02:21:38.327Z,5.80
2018-04-06T02:22:43.127Z,6.17
2018-04-06T02:23:52.353Z,4.77
2018-04-06T02:25:00.218Z,5.03
2018-04-06T02:26:04.420Z,5.93
2018-04-06T02:27:08.610Z,5.57
2018-04-06T02:28:14.023Z,5.30
2018-04-06T02:29:20.116Z,6.17
2018-04-06T02:30:27.925Z,5.87
2018-04-06T02:31:32.697Z,5.32
2018-04-06T02:32:36.890Z,6.53
2018-04-06T02:33:41.155Z,4.25
2018-04-06T02:34:48.637Z,5.30
2018-04-06T02:35:55.157Z,4.47
2018-04-06T02:37:01.702Z,5.40
2018-04-06T02:38:05.916Z,5.37
2018-04-06T02:39:10.162Z,5.30
2018-04-06T02:40:16.959Z,5.55
2018-04-06T02:41:24.106Z,6.00
2018-04-06T02:42:29.863Z,5.65
2018-04-06T02:43:34.086Z,5.90
2018-04-06T02:44:38.345Z,8.00
2018-04-06T02:45:45.465Z,8.90
2018-04-06T02:46:54.793Z,7.27
2018-04-06T02:48:01.523Z,5.35
2018-04-06T02:49:05.725Z,5.73
2018-04-06T02:50:10.312Z,5.50
2018-04-06T02:51:19.809Z,6.80
2018-04-06T02:52:25.180Z,6.00
2018-04-06T02:53:30.044Z,5.70
2018-04-06T02:54:34.247Z,5.93
2018-04-06T02:55:38.683Z,5.80
2018-04-06T02:56:44.480Z,6.13
2018-04-06T02:57:51.067Z,4.80
2018-04-06T02:58:56.577Z,6.70
2018-04-06T03:00:01.759Z,5.85
2018-04-06T03:01:06.748Z,6.50
2018-04-06T03:02:10.939Z,5.20
2018-04-06T03:03:18.517Z,5.77
2018-04-06T03:04:27.029Z,5.13
2018-04-06T03:05:32.083Z,5.37
2018-04-06T03:06:36.289Z,6.00
2018-04-06T03:07:49.034Z,6.22
2018-04-06T03:08:55.055Z,6.20
2018-04-06T03:10:00.439Z,6.00
2018-04-06T03:11:04.651Z,5.72
2018-04-06T03:12:08.834Z,6.00
2018-04-06T03:13:15.001Z,6.10
2018-04-06T03:14:22.265Z,5.70
2018-04-06T03:15:28.920Z,5.80
2018-04-06T03:16:33.186Z,6.57
2018-04-06T03:17:37.393Z,5.30
2018-04-06T03:18:41.608Z,6.13
2018-04-06T03:19:49.752Z,5.87
2018-04-06T03:20:57.004Z,4.77
2018-04-06T03:22:01.508Z,5.43
2018-04-06T03:23:05.705Z,6.70
2018-04-06T03:24:09.915Z,5.60
2018-04-06T03:25:16.180Z,6.43
2018-04-06T03:26:23.777Z,5.93
2018-04-06T03:27:29.371Z,5.63
2018-04-06T03:28:33.639Z,5.57
2018-04-06T03:29:37.835Z,4.87
2018-04-06T03:30:42.094Z,5.90
2018-04-06T03:31:50.232Z,5.60
2018-04-06T03:32:56.081Z,6.93
2018-04-06T03:34:00.732Z,5.22
2018-04-06T03:35:05.296Z,6.23
2018-04-06T03:36:09.504Z,5.80
2018-04-06T03:37:15.458Z,6.97
2018-04-06T03:38:22.819Z,6.10
2018-04-06T03:39:30.189Z,5.68
2018-04-06T03:40:34.414Z,5.60
2018-04-06T03:41:39.398Z,5.15
2018-04-06T03:42:44.141Z,5.90
2018-04-06T03:43:50.692Z,6.70
2018-04-06T03:45:01.026Z,5.25
2018-04-06T03:46:05.309Z,6.33
2018-04-06T03:47:09.519Z,5.60
2018-04-06T03:48:15.120Z,6.20
2018-04-06T03:49:22.379Z,6.03
2018-04-06T03:50:31.601Z,5.07
2018-04-06T03:51:35.818Z,5.87
2018-04-06T03:52:40.016Z,5.97
2018-04-06T03:53:49.463Z,6.30
2018-04-06T03:54:55.921Z,6.00
2018-04-06T03:56:01.659Z,5.43
2018-04-06T03:57:05.848Z,7.10
2018-04-06T03:58:10.034Z,6.13
2018-04-06T03:59:17.248Z,6.33
2018-04-06T04:00:23.704Z,5.70
2018-04-06T04:01:29.326Z,5.80
2018-04-06T04:02:33.544Z,7.03
2018-04-06T04:03:38.494Z,6.47
2018-04-06T04:04:43.393Z,6.97
2018-04-06T04:05:51.373Z,6.63
2018-04-06T04:06:57.637Z,5.63
2018-04-06T04:08:02.064Z,6.97
2018-04-06T04:09:07.077Z,7.33
2018-04-06T04:10:11.331Z,5.28
2018-04-06T04:11:19.850Z,6.07
2018-04-06T04:12:25.322Z,6.80
2018-04-06T04:13:30.858Z,6.32
2018-04-06T04:14:35.068Z,6.80
2018-04-06T04:15:39.312Z,6.37
2018-04-06T04:16:45.109Z,7.23
2018-04-06T04:17:51.359Z,5.47
2018-04-06T04:18:56.278Z,6.70
2018-04-06T04:20:01.369Z,7.22
2018-04-06T04:21:05.582Z,6.50
2018-04-06T04:22:09.838Z,5.67
2018-04-06T04:23:15.131Z,6.10
2018-04-06T04:24:20.210Z,6.63
2018-04-06T04:25:27.032Z,6.00
2018-04-06T04:26:31.657Z,6.63
2018-04-06T04:27:35.971Z,5.80
2018-04-06T04:28:40.175Z,6.20
2018-04-06T04:29:46.833Z,7.33
2018-04-06T04:30:52.372Z,6.10
2018-04-06T04:31:58.750Z,7.37
2018-04-06T04:33:03.438Z,6.77
2018-04-06T04:34:07.638Z,6.50
2018-04-06T04:35:11.855Z,8.23
2018-04-06T04:36:23.610Z,6.57
2018-04-06T04:37:30.713Z,6.50
2018-04-06T04:38:35.553Z,5.97
2018-04-06T04:39:39.908Z,6.72
2018-04-06T04:40:45.287Z,6.28
2018-04-06T04:41:52.323Z,5.97
2018-04-06T04:42:57.741Z,7.23
2018-04-06T04:44:02.870Z,6.47
2018-04-06T04:45:07.085Z,7.43
2018-04-06T04:46:11.293Z,6.75
2018-04-06T04:47:16.881Z,5.90
2018-04-06T04:48:23.715Z,6.50
2018-04-06T04:49:29.091Z,6.35
2018-04-06T04:50:34.796Z,7.28
2018-04-06T04:51:38.991Z,6.33
2018-04-06T04:52:43.874Z,6.35
2018-04-06T04:53:51.144Z,6.43
2018-04-06T04:55:00.751Z,5.97
2018-04-06T04:56:04.948Z,6.70
2018-04-06T04:57:09.141Z,5.50
2018-04-06T04:58:14.064Z,7.03
2018-04-06T04:59:21.411Z,6.17
2018-04-06T05:00:27.048Z,7.10
2018-04-06T05:01:31.298Z,6.13
2018-04-06T05:02:35.496Z,7.30
2018-04-06T05:03:39.699Z,7.40
2018-04-06T05:04:45.910Z,6.90
2018-04-06T05:05:52.623Z,7.18
2018-04-06T05:06:58.962Z,6.83
2018-04-06T05:08:03.206Z,8.17
2018-04-06T05:09:07.439Z,7.30
2018-04-06T05:10:11.717Z,7.57
2018-04-06T05:11:18.076Z,6.80
2018-04-06T05:12:27.793Z,6.37
2018-04-06T05:13:32.901Z,9.90
2018-04-06T05:14:37.113Z,6.77
2018-04-06T05:15:41.311Z,6.17
2018-04-06T05:16:48.610Z,5.70
2018-04-06T05:17:55.700Z,7.35
2018-04-06T05:19:00.302Z,6.50
2018-04-06T05:20:04.562Z,6.90
2018-04-06T05:21:09.531Z,7.60
2018-04-06T05:22:14.248Z,5.87
2018-04-06T05:23:19.888Z,7.28
2018-04-06T05:24:24.728Z,6.75
2018-04-06T05:25:30.623Z,8.45
2018-04-06T05:26:35.582Z,7.85
2018-04-06T05:27:39.816Z,6.73
2018-04-06T05:28:47.392Z,6.20
2018-04-06T05:29:52.695Z,6.00
2018-04-06T05:30:57.888Z,6.95
2018-04-06T05:32:02.457Z,6.82
2018-04-06T05:33:07.412Z,6.70
2018-04-06T05:34:11.654Z,6.80
2018-04-06T05:35:18.193Z,7.00
2018-04-06T05:36:25.959Z,7.53
2018-04-06T05:37:30.862Z,6.00
2018-04-06T05:38:35.052Z,6.90
2018-04-06T05:39:39.304Z,6.50
2018-04-06T05:40:45.155Z,6.33
2018-04-06T05:41:53.807Z,7.03
2018-04-06T05:43:00.284Z,7.70
2018-04-06T05:44:04.476Z,8.60
2018-04-06T05:45:08.707Z,6.85
2018-04-06T05:46:13.556Z,6.83
2018-04-06T05:47:22.037Z,6.83
2018-04-06T05:48:29.646Z,7.15
2018-04-06T05:49:33.854Z,6.57
2018-04-06T05:50:38.048Z,5.90
2018-04-06T05:51:42.358Z,7.57
2018-04-06T05:52:51.328Z,9.57
2018-04-06T05:53:58.091Z,6.20
2018-04-06T05:55:02.373Z,6.33
2018-04-06T05:56:06.897Z,6.20
2018-04-06T05:57:11.097Z,5.80
2018-04-06T05:58:19.048Z,6.63
2018-04-06T05:59:26.257Z,6.53
2018-04-06T06:00:31.597Z,6.97
2018-04-06T06:01:35.784Z,5.70
2018-04-06T06:02:40.747Z,5.03
2018-04-06T06:03:47.916Z,5.20
2018-04-06T06:04:53.143Z,6.50
2018-04-06T06:05:58.588Z,4.90
2018-04-06T06:07:03.752Z,5.90
2018-04-06T06:08:07.954Z,6.20
2018-04-06T06:09:13.262Z,4.90
2018-04-06T06:10:21.904Z,5.50
2018-04-06T06:11:28.752Z,6.23
2018-04-06T06:12:33.117Z,5.67
2018-04-06T06:13:37.364Z,8.30
2018-04-06T06:14:42.615Z,8.30
2018-04-06T06:15:51.646Z,5.50
2018-04-06T06:16:57.557Z,14.75
2018-04-06T06:18:02.158Z,7.87
2018-04-06T06:19:06.359Z,6.50
2018-04-06T06:20:10.563Z,6.80
2018-04-06T06:21:18.017Z,5.23
2018-04-06T06:22:26.129Z,4.50
2018-04-06T06:23:30.838Z,4.90
2018-04-06T06:24:35.063Z,5.10
2018-04-06T06:25:39.238Z,3.90
2018-04-06T06:26:46.146Z,5.90
2018-04-06T06:27:53.450Z,5.30
2018-04-06T06:29:00.053Z,3.87
2018-04-06T06:30:05.049Z,5.43
2018-04-06T06:31:09.389Z,6.03
2018-04-06T06:32:15.286Z,4.40
2018-04-06T06:33:21.884Z,5.07
2018-04-06T06:34:27.791Z,4.23
2018-04-06T06:35:32.291Z,4.50
2018-04-06T06:36:37.255Z,4.03
2018-04-06T06:37:41.463Z,3.30
2018-04-06T06:38:48.947Z,3.70
2018-04-06T06:39:57.436Z,3.90
2018-04-06T06:41:02.801Z,5.00
2018-04-06T06:42:07.030Z,4.40
2018-04-06T06:43:11.215Z,3.60
2018-04-06T06:44:23.232Z,4.37
2018-04-06T06:45:29.968Z,3.50
2018-04-06T06:46:34.168Z,4.90
2018-04-06T06:47:39.138Z,3.57
2018-04-06T06:48:44.914Z,3.60
2018-04-06T06:49:53.184Z,3.77
2018-04-06T06:50:59.876Z,3.30
2018-04-06T06:52:04.101Z,3.30
2018-04-06T06:53:08.671Z,3.80
2018-04-06T06:54:14.315Z,3.47
2018-04-06T06:55:20.689Z,4.30
2018-04-06T06:56:25.866Z,3.90
2018-04-06T06:57:30.265Z,3.50
2018-04-06T06:58:34.503Z,3.80
2018-04-06T06:59:39.467Z,3.70
2018-04-06T07:00:46.028Z,2.73
2018-04-06T07:01:53.391Z,3.33
2018-04-06T07:02:58.674Z,3.20
2018-04-06T07:04:02.914Z,4.87
2018-04-06T07:05:07.476Z,3.80
2018-04-06T07:06:11.673Z,2.97
2018-04-06T07:07:20.029Z,3.97
2018-04-06T07:08:27.539Z,3.40
2018-04-06T07:09:32.096Z,3.70
2018-04-06T07:10:36.320Z,3.10
2018-04-06T07:11:40.563Z,4.17
2018-04-06T07:12:49.670Z,3.93
2018-04-06T07:13:56.930Z,3.10
2018-04-06T07:15:02.062Z,3.93
2018-04-06T07:16:06.279Z,4.30
2018-04-06T07:17:10.472Z,3.67
2018-04-06T07:18:17.334Z,4.13
2018-04-06T07:19:24.918Z,7.60
2018-04-06T07:20:30.295Z,3.47
2018-04-06T07:21:34.489Z,3.43
2018-04-06T07:22:38.678Z,3.37
2018-04-06T07:23:46.653Z,3.90
2018-04-06T07:24:54.041Z,4.20
2018-04-06T07:26:01.097Z,3.73
2018-04-06T07:27:05.314Z,3.60
2018-04-06T07:28:09.493Z,3.33
2018-04-06T07:29:17.615Z,3.63
2018-04-06T07:30:26.222Z,4.30
2018-04-06T07:31:31.145Z,3.33
2018-04-06T07:32:35.359Z,3.50
2018-04-06T07:33:39.549Z,3.50
2018-04-06T07:34:45.603Z,3.43
2018-04-06T07:35:54.112Z,3.67
2018-04-06T07:37:00.308Z,2.93
2018-04-06T07:38:04.501Z,3.57
2018-04-06T07:39:08.686Z,3.70
2018-04-06T07:40:17.074Z,2.93
2018-04-06T07:41:28.448Z,3.33
2018-04-06T07:42:32.975Z,3.83
2018-04-06T07:43:37.934Z,3.43
2018-04-06T07:44:42.285Z,3.30
2018-04-06T07:45:50.368Z,3.83
2018-04-06T07:46:59.476Z,3.67
2018-04-06T07:48:04.447Z,3.13
2018-04-06T07:49:08.636Z,3.63
2018-04-06T07:50:13.761Z,4.53
2018-04-06T07:51:22.088Z,3.60
2018-04-06T07:52:30.041Z,2.87
2018-04-06T07:53:34.284Z,3.53
2018-04-06T07:54:38.476Z,3.50
2018-04-06T07:55:42.972Z,3.33
2018-04-06T07:56:52.298Z,3.40
2018-04-06T07:57:58.038Z,3.40
2018-04-06T07:59:02.981Z,3.30
2018-04-06T08:00:07.195Z,3.63
2018-04-06T08:01:11.397Z,3.17
2018-04-06T08:02:19.134Z,3.80
2018-04-06T08:03:28.380Z,3.20
2018-04-06T08:04:33.057Z,3.50
2018-04-06T08:05:37.246Z,3.37
2018-04-06T08:06:42.227Z,3.20
2018-04-06T08:07:51.658Z,3.23
2018-04-06T08:08:58.802Z,2.80
2018-04-06T08:10:03.422Z,4.50
2018-04-06T08:11:07.641Z,2.80
2018-04-06T08:12:11.840Z,3.33
2018-04-06T08:13:20.435Z,3.63
2018-04-06T08:14:28.762Z,2.33
2018-04-06T08:15:33.173Z,2.67
2018-04-06T08:16:38.150Z,3.33
2018-04-06T08:17:42.392Z,3.20
2018-04-06T08:18:50.160Z,3.47
2018-04-06T08:19:57.520Z,2.93
2018-04-06T08:21:03.930Z,3.90
2018-04-06T08:22:08.929Z,3.67
2018-04-06T08:23:14.564Z,3.33
2018-04-06T08:24:21.692Z,3.70
2018-04-06T08:25:30.047Z,3.10
2018-04-06T08:26:34.290Z,3.00
2018-04-06T08:27:38.487Z,3.07
2018-04-06T08:28:42.988Z,3.10
2018-04-06T08:29:51.683Z,3.50
2018-04-06T08:30:57.417Z,3.03
2018-04-06T08:32:03.124Z,3.80
2018-04-06T08:33:07.335Z,3.80
2018-04-06T08:34:11.520Z,3.37
2018-04-06T08:35:19.743Z,4.03
2018-04-06T08:36:27.575Z,4.20
2018-04-06T08:37:31.900Z,3.60
2018-04-06T08:38:36.854Z,3.87
2018-04-06T08:39:41.261Z,3.80
2018-04-06T08:40:50.316Z,3.43
2018-04-06T08:41:57.306Z,3.30
2018-04-06T08:43:02.541Z,3.23
2018-04-06T08:44:06.739Z,3.80
2018-04-06T08:45:10.919Z,3.07
2018-04-06T08:46:16.394Z,2.90
2018-04-06T08:47:23.226Z,2.63
2018-04-06T08:48:28.638Z,3.33
2018-04-06T08:49:32.909Z,3.07
2018-04-06T08:50:37.093Z,3.00
2018-04-06T08:51:41.293Z,5.13
2018-04-06T08:52:48.827Z,3.73
2018-04-06T08:53:57.041Z,2.97
2018-04-06T08:55:02.068Z,2.97
2018-04-06T08:56:06.257Z,3.03
2018-04-06T08:57:10.470Z,3.27
2018-04-06T08:58:19.198Z,3.67
2018-04-06T08:59:26.478Z,3.30
2018-04-06T09:00:31.465Z,3.43
2018-04-06T09:01:35.669Z,3.40
2018-04-06T09:02:40.631Z,4.80
2018-04-06T09:03:46.574Z,3.30
2018-04-06T09:04:52.224Z,3.63
2018-04-06T09:05:57.623Z,3.50
2018-04-06T09:07:02.600Z,4.43
2018-04-06T09:08:06.817Z,4.13
2018-04-06T09:09:11.009Z,4.40
2018-04-06T09:10:16.862Z,6.10
2018-04-06T09:11:22.857Z,5.20
2018-04-06T09:12:27.662Z,5.73
2018-04-06T09:13:32.659Z,5.80
2018-04-06T09:14:36.847Z,6.60
2018-04-06T09:15:41.824Z,5.87
2018-04-06T09:16:48.815Z,6.43
2018-04-06T09:17:53.527Z,5.67
2018-04-06T09:18:58.512Z,6.20
2018-04-06T09:20:02.711Z,6.47
2018-04-06T09:21:07.670Z,8.57
2018-04-06T09:22:11.972Z,7.60
2018-04-06T09:23:20.417Z,6.93
2018-04-06T09:24:28.220Z,8.90
2018-04-06T09:25:33.306Z,7.20
2018-04-06T09:26:37.521Z,8.43
2018-04-06T09:27:41.720Z,7.40
2018-04-06T09:28:49.281Z,7.10
2018-04-06T09:29:56.744Z,7.43
2018-04-06T09:31:01.437Z,9.00
2018-04-06T09:32:05.666Z,6.80
2018-04-06T09:33:09.877Z,7.20
2018-04-06T09:34:18.216Z,6.70
2018-04-06T09:35:25.289Z,6.30
2018-04-06T09:36:30.734Z,4.33
2018-04-06T09:37:35.296Z,5.43
2018-04-06T09:38:39.495Z,5.57
2018-04-06T09:39:45.771Z,5.80
2018-04-06T09:40:53.286Z,5.43
2018-04-06T09:42:00.132Z,5.60
2018-04-06T09:43:04.424Z,4.93
2018-04-06T09:44:09.415Z,4.40
2018-04-06T09:45:15.537Z,5.40
2018-04-06T09:46:23.548Z,4.13
2018-04-06T09:47:29.251Z,4.47
2018-04-06T09:48:33.504Z,3.97
2018-04-06T09:49:37.790Z,3.90
2018-04-06T09:50:42.914Z,3.67
2018-04-06T09:51:51.589Z,3.97
2018-04-06T09:52:58.204Z,4.57
2018-04-06T09:54:02.752Z,3.50
2018-04-06T09:55:06.953Z,4.00
2018-04-06T09:56:11.156Z,3.90
2018-04-06T09:57:18.240Z,3.40
2018-04-06T09:58:25.239Z,5.30
2018-04-06T09:59:30.123Z,3.50
2018-04-06T10:00:34.336Z,2.80
2018-04-06T10:01:38.643Z,3.40
2018-04-06T10:02:46.950Z,2.90
2018-04-06T10:03:54.778Z,4.00
2018-04-06T10:04:59.169Z,3.57
2018-04-06T10:06:03.361Z,3.20
2018-04-06T10:07:08.375Z,2.30
2018-04-06T10:08:14.569Z,3.63
2018-04-06T10:09:19.804Z,3.10
2018-04-06T10:10:26.779Z,4.20
2018-04-06T10:11:31.227Z,3.40
2018-04-06T10:12:35.485Z,3.17
2018-04-06T10:13:39.703Z,4.00
2018-04-06T10:14:49.974Z,3.13
2018-04-06T10:15:58.392Z,2.80
2018-04-06T10:17:02.606Z,3.37
2018-04-06T10:18:06.965Z,3.23
2018-04-06T10:19:11.977Z,2.63
2018-04-06T10:20:19.241Z,3.60
2018-04-06T10:21:27.150Z,2.50
2018-04-06T10:22:31.403Z,3.10
2018-04-06T10:23:36.381Z,3.63
2018-04-06T10:24:40.974Z,2.90
2018-04-06T10:25:48.698Z,3.23
2018-04-06T10:26:55.161Z,3.00
2018-04-06T10:28:01.594Z,2.80
2018-04-06T10:29:06.534Z,3.50
2018-04-06T10:30:10.766Z,3.87
2018-04-06T10:31:19.972Z,2.73
2018-04-06T10:32:28.642Z,3.53
2018-04-06T10:33:34.022Z,3.37
2018-04-06T10:34:38.284Z,3.27
2018-04-06T10:35:42.541Z,3.40
2018-04-06T10:36:53.777Z,2.70
2018-04-06T10:38:00.705Z,1.90
2018-04-06T10:39:08.063Z,2.67
2018-04-06T10:40:12.628Z,2.60
2018-04-06T10:41:22.839Z,2.73
2018-04-06T10:42:29.055Z,2.80
2018-04-06T10:43:33.343Z,2.70
2018-04-06T10:44:37.547Z,2.90
2018-04-06T10:45:41.786Z,2.67
2018-04-06T10:46:53.320Z,2.60
2018-04-06T10:47:59.704Z,2.70
2018-04-06T10:49:03.987Z,2.70
2018-04-06T10:50:08.197Z,2.77
2018-04-06T10:51:12.634Z,2.70
2018-04-06T10:52:21.806Z,4.10
2018-04-06T10:53:28.383Z,2.00
2018-04-06T10:54:33.394Z,2.70
2018-04-06T10:55:37.627Z,2.53
2018-04-06T10:56:43.761Z,2.30
2018-04-06T10:57:53.216Z,1.83
2018-04-06T10:58:57.735Z,1.70
2018-04-06T11:00:02.743Z,2.40
2018-04-06T11:01:06.962Z,1.87
2018-04-06T11:02:11.201Z,2.40
2018-04-06T11:03:19.149Z,2.57
2018-04-06T11:04:26.660Z,2.30
2018-04-06T11:05:32.647Z,2.67
2018-04-06T11:06:36.856Z,2.40
2018-04-06T11:07:41.047Z,2.13
2018-04-06T11:08:49.673Z,1.97
2018-04-06T11:09:56.609Z,2.67
2018-04-06T11:11:01.484Z,2.53
2018-04-06T11:12:05.700Z,2.80
2018-04-06T11:13:09.904Z,2.10
2018-04-06T11:14:16.006Z,2.50
2018-04-06T11:15:21.972Z,2.27
2018-04-06T11:16:27.247Z,2.30
2018-04-06T11:17:32.311Z,2.10
2018-04-06T11:18:36.528Z,1.83
2018-04-06T11:19:40.736Z,1.90
2018-04-06T11:20:48.515Z,2.47
2018-04-06T11:21:55.702Z,3.27
2018-04-06T11:23:01.224Z,2.43
2018-04-06T11:24:06.163Z,2.40
2018-04-06T11:25:10.354Z,2.53
2018-04-06T11:26:16.961Z,1.53
2018-04-06T11:27:24.326Z,1.90
2018-04-06T11:28:29.453Z,2.00
2018-04-06T11:29:33.675Z,2.27
2018-04-06T11:30:38.490Z,2.07
2018-04-06T11:31:45.938Z,1.80
2018-04-06T11:32:52.673Z,2.37
2018-04-06T11:33:58.508Z,2.40
2018-04-06T11:35:02.803Z,1.90
2018-04-06T11:36:07.066Z,1.67
2018-04-06T11:37:11.266Z,2.67
2018-04-06T11:38:16.460Z,1.93
2018-04-06T11:39:26.601Z,1.77
2018-04-06T11:40:31.966Z,1.70
2018-04-06T11:41:36.224Z,1.83
2018-04-06T11:42:41.186Z,1.77
2018-04-06T11:43:47.545Z,1.63
2018-04-06T11:44:56.359Z,1.50
2018-04-06T11:46:01.143Z,2.07
2018-04-06T11:47:05.359Z,1.70
2018-04-06T11:48:09.565Z,1.97
2018-04-06T11:49:17.891Z,1.50
2018-04-06T11:50:24.478Z,1.93
2018-04-06T11:51:30.153Z,2.17
2018-04-06T11:52:34.369Z,1.60
2018-04-06T11:53:38.576Z,1.60
2018-04-06T11:54:43.318Z,1.80
2018-04-06T11:55:53.651Z,1.93
2018-04-06T11:56:59.771Z,1.87
2018-04-06T11:58:03.981Z,2.30
2018-04-06T11:59:08.178Z,2.30
2018-04-06T12:00:14.376Z,1.90
2018-04-06T12:01:20.512Z,2.20
2018-04-06T12:02:26.685Z,2.10
2018-04-06T12:03:31.725Z,2.10
2018-04-06T12:04:35.932Z,1.83
2018-04-06T12:05:40.138Z,1.73
2018-04-06T12:06:45.672Z,2.63
2018-04-06T12:07:52.446Z,2.20
2018-04-06T12:08:57.326Z,1.87
2018-04-06T12:10:02.342Z,1.83
2018-04-06T12:11:06.548Z,1.70
2018-04-06T12:12:10.798Z,1.63
2018-04-06T12:13:17.650Z,2.13
2018-04-06T12:14:22.654Z,1.57
2018-04-06T12:15:29.089Z,2.00
2018-04-06T12:16:33.279Z,1.57
2018-04-06T12:17:37.539Z,1.50
2018-04-06T12:18:41.737Z,2.10
2018-04-06T12:19:49.224Z,2.07
2018-04-06T12:20:54.628Z,1.53
2018-04-06T12:22:00.533Z,1.77
2018-04-06T12:23:04.747Z,1.60
2018-04-06T12:24:08.950Z,1.53
2018-04-06T12:25:14.110Z,1.93
2018-04-06T12:26:20.690Z,1.40
2018-04-06T12:27:26.931Z,1.77
2018-04-06T12:28:31.157Z,1.90
2018-04-06T12:29:37.023Z,2.40
2018-04-06T12:30:41.267Z,1.30
2018-04-06T12:31:49.689Z,1.63
2018-04-06T12:32:55.224Z,1.50
2018-04-06T12:34:00.306Z,1.20
2018-04-06T12:35:05.666Z,1.97
2018-04-06T12:36:09.880Z,1.97
2018-04-06T12:37:16.063Z,1.80
2018-04-06T12:38:21.849Z,2.00
2018-04-06T12:39:27.536Z,1.60
2018-04-06T12:40:32.031Z,1.60
2018-04-06T12:41:36.660Z,1.40
2018-04-06T12:42:40.975Z,1.67
2018-04-06T12:43:46.722Z,1.83
2018-04-06T12:44:53.178Z,2.23
2018-04-06T12:45:58.679Z,1.67
2018-04-06T12:47:03.247Z,2.03
2018-04-06T12:48:07.435Z,1.53
2018-04-06T12:49:13.177Z,1.77
2018-04-06T12:50:20.335Z,1.70
2018-04-06T12:51:26.770Z,1.90
2018-04-06T12:52:31.079Z,1.53
2018-04-06T12:53:35.270Z,2.03
2018-04-06T12:54:39.533Z,2.07
2018-04-06T12:55:45.969Z,1.83
2018-04-06T12:56:52.427Z,1.80
2018-04-06T12:57:58.438Z,2.00
2018-04-06T12:59:03.402Z,1.67
2018-04-06T13:00:11.700Z,1.93
2018-04-06T13:01:17.540Z,2.00
2018-04-06T13:02:25.546Z,1.60
2018-04-06T13:03:30.322Z,1.43
2018-04-06T13:04:34.514Z,1.97
2018-04-06T13:05:38.767Z,1.83
2018-04-06T13:06:46.667Z,1.43
2018-04-06T13:07:52.841Z,1.80
2018-04-06T13:08:58.298Z,1.83
2018-04-06T13:10:02.524Z,2.00
2018-04-06T13:11:07.573Z,1.63
2018-04-06T13:12:12.594Z,1.43
2018-04-06T13:13:18.965Z,1.70
2018-04-06T13:14:25.354Z,1.50
2018-04-06T13:15:30.866Z,1.60
2018-04-06T13:16:35.140Z,1.60
2018-04-06T13:17:39.357Z,1.67
2018-04-06T13:18:45.008Z,2.23
2018-04-06T13:19:50.638Z,1.50
2018-04-06T13:20:56.890Z,1.90
2018-04-06T13:22:01.795Z,1.50
2018-04-06T13:23:06.807Z,2.10
2018-04-06T13:24:10.998Z,1.40
2018-04-06T13:25:16.484Z,1.60
2018-04-06T13:26:22.615Z,1.63
2018-04-06T13:27:28.101Z,1.63
2018-04-06T13:28:32.334Z,2.00
2018-04-06T13:29:36.551Z,2.43
2018-04-06T13:30:40.792Z,1.80
2018-04-06T13:31:48.218Z,1.60
2018-04-06T13:32:55.302Z,2.13
2018-04-06T13:33:59.860Z,1.93
2018-04-06T13:35:04.842Z,1.93
2018-04-06T13:36:09.045Z,2.50
2018-04-06T13:37:15.529Z,2.00
2018-04-06T13:38:24.473Z,2.40
2018-04-06T13:39:30.312Z,2.00
2018-04-06T13:40:34.521Z,2.03
2018-04-06T13:41:38.753Z,2.27
2018-04-06T13:42:43.575Z,1.80
2018-04-06T13:43:50.166Z,1.60
2018-04-06T13:44:56.891Z,2.23
2018-04-06T13:46:01.289Z,1.53
2018-04-06T13:47:05.507Z,1.60
2018-04-06T13:48:09.704Z,1.77
2018-04-06T13:49:15.769Z,1.93
2018-04-06T13:50:22.896Z,2.30
2018-04-06T13:51:28.008Z,1.83
2018-04-06T13:52:32.858Z,1.43
2018-04-06T13:53:37.822Z,1.77
2018-04-06T13:54:42.034Z,2.10
2018-04-06T13:55:46.578Z,1.90
2018-04-06T13:56:50.854Z,1.60
2018-04-06T13:57:57.373Z,2.10
2018-04-06T13:59:02.395Z,1.90
2018-04-06T14:00:06.603Z,1.80
2018-04-06T14:01:10.869Z,2.47
2018-04-06T14:02:18.396Z,2.40
2018-04-06T14:03:28.355Z,2.00
2018-04-06T14:04:32.694Z,1.87
2018-04-06T14:05:37.676Z,1.80
2018-04-06T14:06:41.903Z,1.77
2018-04-06T14:07:49.018Z,1.50
2018-04-06T14:08:56.227Z,1.57
2018-04-06T14:10:01.532Z,1.70
2018-04-06T14:11:06.527Z,1.43
2018-04-06T14:12:10.729Z,1.90
2018-04-06T14:13:15.991Z,1.57
2018-04-06T14:14:20.663Z,2.10
2018-04-06T14:15:24.856Z,1.50
2018-04-06T14:16:29.181Z,1.43
2018-04-06T14:17:33.466Z,1.93
2018-04-06T14:18:38.499Z,2.50
2018-04-06T14:19:44.761Z,2.13
2018-04-06T14:20:50.516Z,1.57
2018-04-06T14:21:55.152Z,1.90
2018-04-06T14:22:59.930Z,2.20
2018-04-06T14:24:04.138Z,2.57
2018-04-06T14:25:08.340Z,1.70
2018-04-06T14:26:12.554Z,1.80
2018-04-06T14:27:20.470Z,1.50
2018-04-06T14:28:25.734Z,2.10
2018-04-06T14:29:30.467Z,1.80
2018-04-06T14:30:34.679Z,2.20
2018-04-06T14:31:38.878Z,1.93
2018-04-06T14:32:44.446Z,2.03
2018-04-06T14:33:50.230Z,1.73
2018-04-06T14:34:56.339Z,1.50
2018-04-06T14:36:00.798Z,1.77